Time;durP1;ratioP1;P1;durP2;ratioP2;P2;SDS_P1;SDS_P2;PMS_P1;PMS_P2;Temp;Humidity;BMP_temperature;BMP_pressure;BME280_temperature;BME280_humidity;BME280_pressure;Samples;Min_cycle;Max_cycle;Signal;HPM_P1;HPM_P2
2021/04/18 00:01:11;;;;;;;5.45;3.28;;;8.70;63.70;;;;;;5086998;28;20044;-68
2021/04/18 00:03:38;;;;;;;6.10;3.53;;;8.60;63.90;;;;;;5087796;28;20055;-68
2021/04/18 00:06:06;;;;;;;6.28;3.50;;;8.70;63.40;;;;;;5085232;28;20048;-69
2021/04/18 00:08:32;;;;;;;6.85;3.25;;;8.80;63.20;;;;;;5074369;28;20119;-68
2021/04/18 00:10:58;;;;;;;5.65;2.60;;;8.80;62.90;;;;;;5085921;28;20040;-68
2021/04/18 00:13:24;;;;;;;6.07;3.20;;;8.70;63.20;;;;;;5078741;28;20044;-68
2021/04/18 00:15:51;;;;;;;8.07;3.53;;;8.60;63.70;;;;;;5085878;28;20040;-69
2021/04/18 00:18:18;;;;;;;6.22;3.00;;;8.70;63.50;;;;;;5086590;28;20036;-68
2021/04/18 00:20:44;;;;;;;6.60;3.45;;;8.50;63.90;;;;;;5090011;28;20054;-68
2021/04/18 00:23:10;;;;;;;5.72;3.30;;;8.50;64.20;;;;;;5092833;28;20044;-69
2021/04/18 00:25:37;;;;;;;5.10;3.10;;;8.50;64.30;;;;;;5085987;28;20052;-69
2021/04/18 00:28:04;;;;;;;6.95;3.35;;;8.60;64.50;;;;;;5084107;28;20059;-69
2021/04/18 00:30:30;;;;;;;12.45;3.10;;;8.60;64.30;;;;;;5086509;28;20052;-69
2021/04/18 00:32:59;;;;;;;5.45;3.15;;;8.60;64.60;;;;;;5082742;28;20071;-70
2021/04/18 00:35:26;;;;;;;8.23;3.45;;;8.60;64.60;;;;;;5090750;28;20094;-69
2021/04/18 00:37:52;;;;;;;7.65;3.45;;;8.60;64.70;;;;;;5090765;28;20052;-69
2021/04/18 00:40:22;;;;;;;5.82;3.17;;;8.70;64.50;;;;;;5086306;28;20036;-69
2021/04/18 00:42:49;;;;;;;7.10;3.33;;;8.80;64.00;;;;;;5086559;28;20052;-69
2021/04/18 00:45:16;;;;;;;8.50;4.15;;;8.90;63.80;;;;;;5082224;28;20122;-69
2021/04/18 00:47:45;;;;;;;8.02;3.35;;;8.80;64.10;;;;;;5087876;28;20422;-69
2021/04/18 00:50:18;;;;;;;7.33;3.30;;;8.80;64.40;;;;;;5091362;28;20086;-69
2021/04/18 00:52:49;;;;;;;10.18;3.72;;;8.60;64.70;;;;;;5085424;28;20310;-69
2021/04/18 00:55:18;;;;;;;8.05;3.92;;;8.80;64.80;;;;;;5086567;28;20489;-70
2021/04/18 00:57:45;;;;;;;5.80;3.38;;;8.70;65.00;;;;;;5094474;28;20424;-69
2021/04/18 01:00:12;;;;;;;7.40;4.18;;;8.80;65.60;;;;;;5086865;28;20090;-69
2021/04/18 01:02:39;;;;;;;8.13;3.38;;;8.80;65.40;;;;;;5093134;28;20119;-70
2021/04/18 01:05:06;;;;;;;7.70;3.85;;;8.70;65.90;;;;;;5090989;28;20510;-69
2021/04/18 01:07:34;;;;;;;7.80;3.60;;;8.50;66.10;;;;;;5089840;28;20044;-69
2021/04/18 01:10:02;;;;;;;7.13;4.00;;;8.50;66.00;;;;;;5080531;28;20454;-69
2021/04/18 01:12:28;;;;;;;6.25;3.70;;;8.50;66.20;;;;;;5089116;28;20460;-69
2021/04/18 01:14:55;;;;;;;7.10;3.40;;;8.80;65.80;;;;;;5091103;28;20364;-69
2021/04/18 01:17:22;;;;;;;7.80;3.72;;;8.70;65.50;;;;;;5093136;28;20052;-69
2021/04/18 01:19:49;;;;;;;5.68;3.30;;;8.60;65.70;;;;;;5084885;28;20036;-69
2021/04/18 01:22:16;;;;;;;5.93;3.50;;;8.50;66.10;;;;;;5085096;28;20056;-69
2021/04/18 01:24:42;;;;;;;9.80;3.95;;;8.50;66.40;;;;;;5089716;28;20051;-69
2021/04/18 01:27:10;;;;;;;7.13;4.55;;;8.50;66.20;;;;;;5086737;28;20448;-69
2021/04/18 01:29:38;;;;;;;9.57;3.80;;;8.60;66.20;;;;;;5088057;28;20044;-69
2021/04/18 01:32:05;;;;;;;10.35;3.95;;;8.60;65.70;;;;;;5088714;28;20457;-69
2021/04/18 01:34:31;;;;;;;8.35;3.80;;;8.50;66.10;;;;;;5086764;28;20098;-70
2021/04/18 01:36:59;;;;;;;7.57;3.65;;;8.30;67.40;;;;;;5089116;28;20086;-69
2021/04/18 01:39:25;;;;;;;8.10;4.18;;;8.40;67.70;;;;;;5087556;28;20074;-69
2021/04/18 01:41:52;;;;;;;9.70;4.32;;;8.50;66.80;;;;;;5090730;28;20857;-70
2021/04/18 01:44:18;;;;;;;7.68;3.83;;;8.50;67.20;;;;;;5079256;28;20102;-70
2021/04/18 01:46:46;;;;;;;8.05;4.05;;;8.60;67.20;;;;;;5085627;28;20048;-69
2021/04/18 01:49:13;;;;;;;9.77;4.65;;;8.50;67.50;;;;;;5080886;28;20040;-70
2021/04/18 01:51:40;;;;;;;9.27;4.18;;;8.50;67.80;;;;;;5090498;28;20444;-69
2021/04/18 01:54:09;;;;;;;8.90;4.32;;;8.40;68.30;;;;;;5087848;28;20064;-69
2021/04/18 01:56:35;;;;;;;10.43;4.63;;;8.40;68.60;;;;;;5086257;28;20122;-69
2021/04/18 01:59:04;;;;;;;8.63;4.18;;;8.30;68.40;;;;;;5086600;28;20400;-69
2021/04/18 02:01:30;;;;;;;7.40;3.92;;;8.20;68.70;;;;;;5089234;28;20044;-69
2021/04/18 02:03:57;;;;;;;9.18;4.40;;;8.20;69.00;;;;;;5088223;28;20063;-69
2021/04/18 02:06:24;;;;;;;7.43;4.07;;;8.40;68.70;;;;;;5081792;28;20059;-69
2021/04/18 02:08:50;;;;;;;7.82;4.20;;;8.40;68.10;;;;;;5088022;28;20127;-69
2021/04/18 02:11:17;;;;;;;12.70;4.90;;;8.40;67.80;;;;;;5085314;28;20048;-70
2021/04/18 02:13:43;;;;;;;12.25;8.82;;;8.40;68.00;;;;;;5085997;28;20143;-70
2021/04/18 02:16:10;;;;;;;21.98;12.75;;;8.50;67.90;;;;;;5090304;28;20040;-69
2021/04/18 02:18:36;;;;;;;19.48;11.80;;;8.40;67.20;;;;;;5088363;28;20383;-69
2021/04/18 02:21:03;;;;;;;17.20;12.18;;;8.60;66.80;;;;;;5089610;28;20036;-69
2021/04/18 02:23:29;;;;;;;17.10;11.75;;;8.60;66.70;;;;;;5082281;28;20063;-70
2021/04/18 02:25:56;;;;;;;19.17;11.23;;;8.60;65.90;;;;;;5080624;28;20097;-69
2021/04/18 02:28:22;;;;;;;17.33;10.60;;;8.70;65.30;;;;;;5091592;28;20044;-71
2021/04/18 02:30:48;;;;;;;18.30;11.02;;;8.70;65.10;;;;;;5088610;28;20052;-69
2021/04/18 02:33:15;;;;;;;18.25;12.75;;;8.50;65.70;;;;;;5082757;28;20099;-69
2021/04/18 02:35:41;;;;;;;19.45;12.65;;;8.60;65.70;;;;;;5091253;28;20044;-67
2021/04/18 02:38:08;;;;;;;16.65;11.23;;;8.60;66.10;;;;;;5090143;28;20430;-67
2021/04/18 02:40:34;;;;;;;22.58;13.30;;;8.70;64.90;;;;;;5083510;28;20036;-68
2021/04/18 02:43:01;;;;;;;20.75;12.23;;;8.80;64.90;;;;;;5086581;28;20124;-68
2021/04/18 02:45:30;;;;;;;20.67;11.85;;;8.50;65.30;;;;;;5086815;28;21034;-69
2021/04/18 02:47:56;;;;;;;18.23;9.75;;;8.50;65.80;;;;;;5088187;28;20047;-69
2021/04/18 02:50:23;;;;;;;13.07;7.43;;;8.40;65.60;;;;;;5087640;28;20044;-69
2021/04/18 02:52:49;;;;;;;13.40;6.85;;;8.40;65.30;;;;;;5088934;28;20051;-69
2021/04/18 02:55:15;;;;;;;18.00;9.02;;;8.30;64.80;;;;;;5077739;28;20044;-69
2021/04/18 02:57:42;;;;;;;13.75;7.13;;;8.40;65.30;;;;;;5086599;28;20541;-69
2021/04/18 03:03:55;;;;;;;17.48;8.60;;;8.30;65.40;;;;;;5085221;28;20149;-69
2021/04/18 03:06:22;;;;;;;19.08;7.70;;;8.40;65.80;;;;;;5091048;28;20043;-68
2021/04/18 03:08:48;;;;;;;15.90;7.00;;;8.30;65.60;;;;;;5086242;28;20055;-69
2021/04/18 03:11:17;;;;;;;11.20;5.85;;;8.40;65.70;;;;;;5089435;28;20102;-69
2021/04/18 03:13:44;;;;;;;9.10;4.93;;;8.40;65.60;;;;;;5088109;28;20072;-69
2021/04/18 03:16:11;;;;;;;7.50;4.57;;;8.40;65.40;;;;;;5081434;28;20139;-68
2021/04/18 03:18:37;;;;;;;7.70;4.00;;;8.40;65.60;;;;;;5081088;28;20135;-70
2021/04/18 03:21:04;;;;;;;8.50;3.72;;;8.40;65.60;;;;;;5087248;28;20461;-69
2021/04/18 03:23:31;;;;;;;10.45;3.80;;;8.30;65.80;;;;;;5085763;28;20385;-69
2021/04/18 03:25:58;;;;;;;7.68;4.35;;;8.40;65.80;;;;;;5088836;28;20131;-69
2021/04/18 03:28:25;;;;;;;11.63;4.82;;;8.50;65.40;;;;;;5083711;28;20063;-68
2021/04/18 03:30:52;;;;;;;8.45;3.70;;;8.60;65.10;;;;;;5089246;28;20053;-68
2021/04/18 03:33:18;;;;;;;6.80;3.95;;;8.80;64.80;;;;;;5085830;28;20052;-68
2021/04/18 03:35:45;;;;;;;7.45;3.90;;;8.80;64.00;;;;;;5084997;28;20466;-70
2021/04/18 03:38:12;;;;;;;8.05;3.80;;;8.40;64.50;;;;;;5083545;28;20093;-68
2021/04/18 03:40:39;;;;;;;6.18;3.80;;;8.40;65.20;;;;;;5087930;28;20044;-68
2021/04/18 03:43:05;;;;;;;9.95;3.72;;;8.30;65.50;;;;;;5087174;28;20047;-68
2021/04/18 03:45:32;;;;;;;9.23;3.63;;;8.20;65.00;;;;;;5084229;28;20048;-69
2021/04/18 03:47:58;;;;;;;5.82;3.47;;;8.20;64.90;;;;;;5085683;28;20048;-68
2021/04/18 03:50:25;;;;;;;7.45;3.75;;;8.20;64.70;;;;;;5086628;28;20118;-69
2021/04/18 03:52:55;;;;;;;8.52;3.60;;;8.30;64.80;;;;;;5092928;28;20411;-69
2021/04/18 03:55:23;;;;;;;8.57;4.07;;;8.20;65.50;;;;;;5090170;28;20054;-69
2021/04/18 03:57:50;;;;;;;7.70;3.25;;;8.20;65.10;;;;;;5092020;28;20467;-69
2021/04/18 04:00:17;;;;;;;6.32;3.35;;;8.20;64.70;;;;;;5092492;28;20101;-69
2021/04/18 04:02:44;;;;;;;6.13;3.30;;;8.20;64.30;;;;;;5086513;28;20048;-67
2021/04/18 04:05:11;;;;;;;9.02;3.13;;;8.30;64.30;;;;;;5094282;28;20439;-70
2021/04/18 04:07:37;;;;;;;10.93;3.58;;;8.30;64.10;;;;;;5086060;28;20139;-68
2021/04/18 04:10:07;;;;;;;9.75;3.60;;;8.10;64.20;;;;;;5081511;28;20479;-69
2021/04/18 04:12:34;;;;;;;5.93;3.20;;;8.10;64.70;;;;;;5093866;28;20101;-69
2021/04/18 04:15:00;;;;;;;8.38;3.60;;;8.20;64.90;;;;;;5088392;28;20052;-68
2021/04/18 04:17:27;;;;;;;6.47;3.70;;;8.30;64.50;;;;;;5089984;28;20044;-70
2021/04/18 04:19:54;;;;;;;5.55;3.20;;;8.20;64.70;;;;;;5093230;28;20055;-69
2021/04/18 04:22:20;;;;;;;6.43;3.88;;;8.20;65.00;;;;;;5089231;28;20160;-69
2021/04/18 04:24:47;;;;;;;6.85;3.10;;;8.20;64.90;;;;;;5089257;28;20153;-69
2021/04/18 04:27:14;;;;;;;7.28;3.40;;;8.30;64.70;;;;;;5089837;28;20125;-69
2021/04/18 04:29:41;;;;;;;8.07;3.63;;;8.40;64.70;;;;;;5092839;28;20056;-69
2021/04/18 04:32:08;;;;;;;5.40;3.45;;;8.40;64.00;;;;;;5080984;28;20052;-70
2021/04/18 04:34:34;;;;;;;7.65;3.75;;;8.40;63.60;;;;;;5086326;28;20045;-69
2021/04/18 04:37:01;;;;;;;6.75;3.10;;;8.40;63.60;;;;;;5091923;28;20465;-69
2021/04/18 04:39:28;;;;;;;8.27;3.67;;;8.50;63.10;;;;;;5090449;28;20476;-69
2021/04/18 04:41:54;;;;;;;7.13;3.53;;;8.50;62.70;;;;;;5082870;28;20046;-67
2021/04/18 04:44:21;;;;;;;9.30;3.97;;;8.50;63.30;;;;;;5107375;28;20471;-69
2021/04/18 04:46:47;;;;;;;12.48;4.43;;;8.40;63.80;;;;;;5084398;28;20582;-69
2021/04/18 04:49:14;;;;;;;14.45;6.93;;;8.60;63.30;;;;;;5089347;28;20134;-69
2021/04/18 04:51:41;;;;;;;15.25;9.05;;;8.80;62.80;;;;;;5093914;28;20075;-69
2021/04/18 04:54:10;;;;;;;14.15;8.85;;;8.80;62.70;;;;;;5090587;28;20052;-70
2021/04/18 04:56:37;;;;;;;16.10;10.15;;;8.60;62.30;;;;;;5088397;28;20040;-69
2021/04/18 04:59:03;;;;;;;20.63;9.95;;;8.50;63.20;;;;;;5089290;28;20101;-70
2021/04/18 05:01:29;;;;;;;19.77;11.00;;;8.50;63.60;;;;;;5082380;28;20048;-70
2021/04/18 05:03:56;;;;;;;20.17;13.82;;;8.60;63.80;;;;;;5090150;28;20071;-69
2021/04/18 05:06:22;;;;;;;18.38;11.48;;;8.80;63.30;;;;;;5088308;28;20075;-69
2021/04/18 05:08:50;;;;;;;12.40;7.28;;;8.90;62.60;;;;;;5085036;28;20487;-69
2021/04/18 05:11:16;;;;;;;18.23;7.03;;;8.90;62.40;;;;;;5087328;28;20056;-69
2021/04/18 05:13:43;;;;;;;10.85;5.50;;;8.90;62.60;;;;;;5087872;28;20097;-68
2021/04/18 05:16:09;;;;;;;14.18;7.22;;;8.90;62.60;;;;;;5087189;28;20760;-69
2021/04/18 05:18:39;;;;;;;16.88;10.75;;;8.90;62.30;;;;;;5090547;28;20123;-70
2021/04/18 05:21:05;;;;;;;15.55;9.73;;;8.90;62.30;;;;;;5086937;28;20078;-69
2021/04/18 05:23:32;;;;;;;19.80;11.05;;;8.90;62.60;;;;;;5092745;28;20048;-69
2021/04/18 05:26:00;;;;;;;18.60;8.43;;;8.70;63.00;;;;;;5086148;28;20050;-69
2021/04/18 05:28:29;;;;;;;14.40;8.30;;;8.80;63.70;;;;;;5091555;28;20063;-69
2021/04/18 05:30:57;;;;;;;15.20;8.57;;;8.70;64.00;;;;;;5086865;28;20480;-70
2021/04/18 05:33:27;;;;;;;15.60;9.20;;;8.90;63.90;;;;;;5089110;28;20117;-71
2021/04/18 05:35:54;;;;;;;19.55;9.95;;;8.90;63.40;;;;;;5086114;28;20060;-71
2021/04/18 05:38:25;;;;;;;12.93;4.60;;;8.90;63.40;;;;;;5088459;28;20048;-69
2021/04/18 05:40:52;;;;;;;7.70;4.68;;;9.10;63.00;;;;;;5089748;28;20047;-69
2021/04/18 05:43:18;;;;;;;10.00;4.88;;;9.20;62.80;;;;;;5085958;28;20475;-69
2021/04/18 05:45:45;;;;;;;8.45;4.10;;;9.10;62.60;;;;;;5089231;28;20060;-70
2021/04/18 05:48:17;;;;;;;10.02;4.43;;;9.10;62.80;;;;;;5090361;28;20051;-70
2021/04/18 05:50:45;;;;;;;12.38;5.78;;;9.10;62.80;;;;;;5088615;28;20501;-69
2021/04/18 05:53:12;;;;;;;16.40;7.13;;;9.20;63.00;;;;;;5088839;28;20050;-71
2021/04/18 05:55:39;;;;;;;18.27;7.82;;;9.30;62.20;;;;;;5084206;28;20044;-69
2021/04/18 05:58:06;;;;;;;12.38;6.03;;;9.30;62.40;;;;;;5090107;28;20467;-68
2021/04/18 06:00:34;;;;;;;12.05;6.80;;;9.50;61.60;;;;;;5090215;28;20040;-69
2021/04/18 06:03:01;;;;;;;12.55;7.28;;;9.40;61.60;;;;;;5086692;28;20476;-69
2021/04/18 06:05:28;;;;;;;15.98;8.52;;;9.40;61.70;;;;;;5089359;28;20127;-70
2021/04/18 06:07:55;;;;;;;14.82;8.75;;;9.40;61.50;;;;;;5089150;28;20048;-67
2021/04/18 06:10:21;;;;;;;15.93;8.20;;;9.50;61.60;;;;;;5089610;28;20415;-68
2021/04/18 06:12:48;;;;;;;18.15;8.52;;;9.40;62.30;;;;;;5088515;28;20055;-69
2021/04/18 06:15:14;;;;;;;18.33;8.70;;;9.40;62.10;;;;;;5080433;28;20825;-69
2021/04/18 06:17:41;;;;;;;17.55;9.43;;;9.50;61.90;;;;;;5077131;28;20476;-67
2021/04/18 06:20:08;;;;;;;13.07;7.75;;;9.70;61.60;;;;;;5093405;28;20395;-68
2021/04/18 06:22:36;;;;;;;11.73;6.70;;;9.80;61.40;;;;;;5089547;28;20051;-68
2021/04/18 06:25:07;;;;;;;10.00;5.63;;;9.80;61.60;;;;;;5090620;28;20130;-68
2021/04/18 06:27:36;;;;;;;12.52;6.22;;;9.50;62.30;;;;;;5089676;28;20052;-69
2021/04/18 06:30:19;;;;;;;13.60;5.80;;;9.30;63.10;;;;;;5085447;28;20050;-70
2021/04/18 06:32:46;;;;;;;17.75;7.45;;;9.60;63.10;;;;;;5082457;28;20121;-70
2021/04/18 06:35:13;;;;;;;12.40;6.78;;;9.70;62.40;;;;;;5088592;28;20431;-69
2021/04/18 06:37:39;;;;;;;14.07;5.97;;;9.80;62.30;;;;;;5090025;28;20122;-69
2021/04/18 06:40:08;;;;;;;12.52;6.32;;;9.80;62.70;;;;;;5089715;28;20044;-69
2021/04/18 06:42:37;;;;;;;10.98;6.45;;;9.60;63.00;;;;;;5083961;28;20108;-69
2021/04/18 06:45:08;;;;;;;9.88;5.80;;;9.80;63.00;;;;;;5086817;28;20103;-69
2021/04/18 06:47:37;;;;;;;11.32;6.38;;;9.90;62.20;;;;;;5089768;28;20066;-69
2021/04/18 06:50:05;;;;;;;15.20;7.10;;;10.30;60.60;;;;;;5088729;28;20135;-69
2021/04/18 06:52:36;;;;;;;14.20;6.22;;;10.80;59.20;;;;;;5089840;28;20452;-70
2021/04/18 06:55:04;;;;;;;13.98;6.18;;;11.50;57.50;;;;;;5090667;28;20055;-69
2021/04/18 06:57:32;;;;;;;13.30;6.85;;;11.70;57.10;;;;;;5087876;28;20044;-70
2021/04/18 06:59:58;;;;;;;16.10;7.40;;;11.20;57.40;;;;;;5089550;28;20060;-70
2021/04/18 07:02:30;;;;;;;14.13;6.57;;;11.50;57.10;;;;;;5081065;28;20048;-69
2021/04/18 07:05:01;;;;;;;15.45;7.18;;;11.90;55.80;;;;;;5082210;28;20045;-68
2021/04/18 07:07:32;;;;;;;13.80;6.25;;;12.20;54.70;;;;;;5089787;28;20419;-68
2021/04/18 07:09:59;;;;;;;12.05;6.05;;;11.80;54.70;;;;;;5085407;28;20052;-69
2021/04/18 07:12:28;;;;;;;11.93;6.50;;;11.60;55.70;;;;;;5086216;28;20051;-69
2021/04/18 07:14:55;;;;;;;12.82;7.20;;;11.40;56.20;;;;;;5087945;28;20048;-69
2021/04/18 07:17:22;;;;;;;13.85;7.22;;;11.10;56.50;;;;;;5084552;28;20475;-69
2021/04/18 07:20:05;;;;;;;13.75;6.70;;;11.20;56.70;;;;;;5090801;28;20040;-69
2021/04/18 07:22:32;;;;;;;16.95;6.35;;;11.60;55.60;;;;;;5091379;28;20044;-69
2021/04/18 07:24:59;;;;;;;12.88;5.25;;;11.30;56.30;;;;;;5086270;28;20402;-69
2021/04/18 07:27:43;;;;;;;11.80;6.03;;;11.30;55.70;;;;;;5091090;28;20075;-69
2021/04/18 07:30:10;;;;;;;9.35;5.72;;;10.70;56.90;;;;;;5088167;28;20052;-70
2021/04/18 07:32:37;;;;;;;11.73;5.97;;;11.10;56.50;;;;;;5087510;28;20746;-70
2021/04/18 07:35:04;;;;;;;8.65;5.15;;;11.10;56.10;;;;;;5090520;28;20067;-67
2021/04/18 07:37:33;;;;;;;10.32;5.28;;;11.20;55.60;;;;;;5088320;28;20410;-69
2021/04/18 07:40:04;;;;;;;10.52;5.60;;;11.10;55.40;;;;;;5086519;28;20040;-69
2021/04/18 07:42:37;;;;;;;8.75;5.05;;;11.00;55.80;;;;;;5088217;28;20040;-68
2021/04/18 07:45:12;;;;;;;18.92;5.43;;;11.10;55.30;;;;;;5085776;28;20113;-69
2021/04/18 07:47:41;;;;;;;9.68;4.70;;;10.90;55.30;;;;;;5089675;28;20052;-68
2021/04/18 07:50:11;;;;;;;10.63;4.60;;;10.90;55.00;;;;;;5089012;28;20044;-69
2021/04/18 07:52:43;;;;;;;13.52;5.10;;;10.90;54.50;;;;;;5084121;28;20044;-69
2021/04/18 07:55:11;;;;;;;10.95;5.60;;;11.30;54.00;;;;;;5088733;28;20044;-68
2021/04/18 07:57:39;;;;;;;10.15;5.25;;;11.40;53.60;;;;;;5092301;28;20052;-67
2021/04/18 08:00:07;;;;;;;12.60;5.47;;;11.20;53.10;;;;;;5087045;28;20445;-69
2021/04/18 08:02:34;;;;;;;12.98;5.60;;;11.00;53.40;;;;;;5081950;28;20511;-69
2021/04/18 08:05:01;;;;;;;8.40;5.32;;;11.00;53.50;;;;;;5088529;28;20074;-68
2021/04/18 08:07:28;;;;;;;11.52;5.57;;;10.90;54.00;;;;;;5082773;28;20410;-69
2021/04/18 08:10:33;;;;;;;11.50;5.32;;;11.00;54.20;;;;;;5091368;28;20044;-68
2021/04/18 08:13:15;;;;;;;9.52;5.05;;;11.10;53.80;;;;;;5083211;28;20050;-69
2021/04/18 08:16:06;;;;;;;10.90;4.90;;;11.40;53.90;;;;;;5084509;28;20051;-69
2021/04/18 08:18:35;;;;;;;10.40;5.20;;;11.40;54.00;;;;;;5092141;28;20555;-70
2021/04/18 08:21:23;;;;;;;14.15;5.70;;;11.40;53.90;;;;;;5088711;28;20119;-68
2021/04/18 08:23:50;;;;;;;13.05;5.93;;;11.40;53.90;;;;;;5081952;28;20094;-68
2021/04/18 08:26:19;;;;;;;9.27;5.20;;;11.60;53.40;;;;;;5087846;28;20471;-69
2021/04/18 08:28:54;;;;;;;9.55;5.35;;;11.70;53.10;;;;;;5087313;28;20056;-70
2021/04/18 08:31:30;;;;;;;12.75;5.75;;;12.00;52.80;;;;;;5083874;28;20423;-69
2021/04/18 08:34:04;;;;;;;10.48;5.57;;;12.00;52.50;;;;;;5086977;28;20520;-68
2021/04/18 08:36:32;;;;;;;9.27;5.65;;;12.00;53.00;;;;;;5089117;28;20510;-69
2021/04/18 08:39:05;;;;;;;15.65;6.47;;;11.80;52.80;;;;;;5088990;28;20079;-69
2021/04/18 08:41:47;;;;;;;10.73;5.93;;;12.10;52.80;;;;;;5104851;28;20137;-68
2021/04/18 08:44:17;;;;;;;13.77;6.78;;;12.00;52.40;;;;;;5105410;28;20066;-68
2021/04/18 08:46:45;;;;;;;13.50;7.57;;;12.10;52.10;;;;;;5087237;28;20074;-68
2021/04/18 08:49:12;;;;;;;15.57;8.00;;;12.30;52.10;;;;;;5093445;28;20083;-68
2021/04/18 08:51:42;;;;;;;16.50;7.95;;;12.40;51.80;;;;;;5089444;28;20048;-69
2021/04/18 08:54:10;;;;;;;16.20;9.07;;;12.50;51.40;;;;;;5086265;28;20057;-69
2021/04/18 08:56:53;;;;;;;19.50;8.83;;;12.50;51.70;;;;;;5087949;28;20045;-70
2021/04/18 08:59:20;;;;;;;15.52;8.27;;;12.30;52.10;;;;;;5097256;28;20047;-69
2021/04/18 09:02:08;;;;;;;18.67;8.88;;;12.10;52.50;;;;;;5090685;27;20095;-69
2021/04/18 09:04:38;;;;;;;16.77;8.63;;;12.50;52.40;;;;;;5091532;28;20051;-69
2021/04/18 09:07:07;;;;;;;18.90;8.37;;;12.80;52.10;;;;;;5087642;28;20110;-69
2021/04/18 09:09:36;;;;;;;21.25;9.75;;;13.10;51.40;;;;;;5085102;28;20056;-70
2021/04/18 09:12:02;;;;;;;19.83;8.88;;;13.50;51.30;;;;;;5090035;28;20486;-70
2021/04/18 09:14:35;;;;;;;16.10;8.35;;;13.60;50.60;;;;;;5090092;28;20051;-69
2021/04/18 09:17:09;;;;;;;15.13;8.23;;;13.50;50.10;;;;;;5077396;28;20402;-70
2021/04/18 09:19:36;;;;;;;19.00;8.15;;;13.30;51.30;;;;;;5098566;28;20471;-70
2021/04/18 09:22:13;;;;;;;17.50;8.75;;;13.00;51.60;;;;;;5092218;28;20479;-70
2021/04/18 09:25:08;;;;;;;21.23;8.85;;;13.00;52.00;;;;;;5092020;28;20048;-69
2021/04/18 09:27:36;;;;;;;21.00;8.70;;;13.00;52.20;;;;;;5085346;28;20048;-69
2021/04/18 09:30:07;;;;;;;20.98;9.10;;;13.30;51.80;;;;;;5090335;28;20475;-69
2021/04/18 09:32:36;;;;;;;19.02;9.13;;;13.30;52.00;;;;;;5090008;28;20478;-69
2021/04/18 09:35:05;;;;;;;14.18;8.40;;;12.70;52.20;;;;;;5091334;28;20046;-70
2021/04/18 09:37:38;;;;;;;17.50;9.40;;;12.40;52.90;;;;;;5083171;28;20052;-69
2021/04/18 09:40:09;;;;;;;17.73;9.35;;;12.70;52.90;;;;;;5086904;28;20055;-70
2021/04/18 09:42:41;;;;;;;18.92;9.65;;;13.10;52.80;;;;;;5088013;28;20058;-69
2021/04/18 09:45:31;;;;;;;19.90;9.50;;;13.10;52.30;;;;;;5089428;28;20089;-69
2021/04/18 09:48:15;;;;;;;16.45;8.60;;;13.00;52.70;;;;;;5086706;28;20043;-70
2021/04/18 09:50:42;;;;;;;18.58;8.98;;;13.20;52.40;;;;;;5087175;28;20054;-70
2021/04/18 09:53:25;;;;;;;16.52;9.15;;;13.30;52.40;;;;;;5088679;28;20446;-70
2021/04/18 09:56:08;;;;;;;16.35;8.85;;;13.40;52.20;;;;;;5088904;28;20072;-69
2021/04/18 09:58:37;;;;;;;19.95;9.77;;;13.50;52.10;;;;;;5089952;28;20052;-70
2021/04/18 10:01:25;;;;;;;17.52;8.75;;;13.50;52.20;;;;;;5083632;28;20052;-70
2021/04/18 10:03:52;;;;;;;16.33;9.13;;;13.80;51.70;;;;;;5075880;28;20055;-70
2021/04/18 10:06:20;;;;;;;16.60;8.70;;;13.80;51.80;;;;;;5093893;28;20044;-72
2021/04/18 10:08:54;;;;;;;17.58;9.85;;;13.50;52.30;;;;;;5085290;28;20380;-70
2021/04/18 10:11:21;;;;;;;19.17;9.15;;;13.50;52.90;;;;;;5080969;28;20997;-69
2021/04/18 10:13:56;;;;;;;15.73;8.70;;;13.50;52.90;;;;;;5088245;28;20470;-69
2021/04/18 10:16:31;;;;;;;20.15;9.68;;;13.70;52.50;;;;;;5089607;28;20088;-70
2021/04/18 10:19:15;;;;;;;23.58;9.05;;;13.60;52.80;;;;;;5086266;28;20044;-69
2021/04/18 10:21:44;;;;;;;18.95;9.30;;;14.00;52.40;;;;;;5086721;28;20058;-69
2021/04/18 10:24:41;;;;;;;16.23;8.73;;;14.10;52.40;;;;;;5085920;28;20093;-69
2021/04/18 10:27:09;;;;;;;20.10;9.00;;;13.80;52.90;;;;;;5078577;28;20048;-69
2021/04/18 10:29:37;;;;;;;18.02;9.05;;;13.90;52.90;;;;;;5087765;28;20436;-69
2021/04/18 10:32:04;;;;;;;20.92;9.93;;;14.60;52.00;;;;;;5087132;28;20474;-68
2021/04/18 10:34:31;;;;;;;13.45;8.98;;;14.30;51.60;;;;;;5091586;28;20479;-68
2021/04/18 10:36:58;;;;;;;15.88;9.02;;;14.40;51.90;;;;;;5086026;28;20560;-69
2021/04/18 10:39:24;;;;;;;16.58;9.27;;;13.80;53.20;;;;;;5082035;28;20040;-69
2021/04/18 10:41:52;;;;;;;17.70;8.38;;;13.90;53.40;;;;;;5088538;28;20044;-69
2021/04/18 10:44:18;;;;;;;16.10;8.80;;;14.00;53.10;;;;;;5087000;28;20048;-68
2021/04/18 10:46:48;;;;;;;18.88;9.93;;;13.80;53.50;;;;;;5088532;28;20056;-68
2021/04/18 10:49:15;;;;;;;17.52;8.77;;;13.90;53.60;;;;;;5089655;28;20071;-69
2021/04/18 10:51:41;;;;;;;17.92;9.77;;;14.40;53.50;;;;;;5090230;28;20059;-70
2021/04/18 10:54:08;;;;;;;21.48;9.63;;;15.10;52.60;;;;;;5090061;28;20056;-69
2021/04/18 10:56:36;;;;;;;14.50;9.45;;;15.30;52.00;;;;;;5089895;28;20060;-67
2021/04/18 10:59:03;;;;;;;21.90;9.07;;;14.40;52.50;;;;;;5088231;28;20059;-70
2021/04/18 11:01:30;;;;;;;16.95;9.52;;;14.20;53.90;;;;;;5086070;28;20516;-69
2021/04/18 11:03:57;;;;;;;16.38;9.27;;;14.30;54.00;;;;;;5084611;28;20162;-69
2021/04/18 11:06:24;;;;;;;16.65;9.32;;;14.50;53.50;;;;;;5089827;28;20056;-70
2021/04/18 11:08:51;;;;;;;13.50;8.68;;;14.20;53.90;;;;;;5091538;28;20040;-70
2021/04/18 11:11:18;;;;;;;17.23;9.60;;;14.40;54.10;;;;;;5087168;28;20073;-72
2021/04/18 11:13:45;;;;;;;17.25;9.07;;;14.60;53.80;;;;;;5093208;28;20044;-70
2021/04/18 11:16:12;;;;;;;15.57;9.30;;;14.80;53.00;;;;;;5084151;28;20105;-70
2021/04/18 11:18:38;;;;;;;13.43;8.65;;;15.10;52.80;;;;;;5085192;28;20067;-70
2021/04/18 11:21:05;;;;;;;13.95;8.52;;;14.60;52.90;;;;;;5091763;28;20066;-72
2021/04/18 11:23:31;;;;;;;14.23;9.05;;;14.10;54.20;;;;;;5084879;28;20066;-72
2021/04/18 11:25:58;;;;;;;13.95;8.85;;;14.30;54.10;;;;;;5088615;28;20068;-70
2021/04/18 11:28:25;;;;;;;14.52;8.55;;;14.60;53.60;;;;;;5086124;28;20050;-70
2021/04/18 11:30:51;;;;;;;18.05;8.73;;;14.70;53.60;;;;;;5080543;28;20105;-71
2021/04/18 11:33:23;;;;;;;22.00;9.02;;;14.70;53.60;;;;;;5087766;28;20044;-71
2021/04/18 11:35:50;;;;;;;16.55;9.38;;;14.70;53.40;;;;;;5085464;28;20048;-70
2021/04/18 11:38:17;;;;;;;18.27;9.55;;;14.90;53.50;;;;;;5083882;28;20052;-71
2021/04/18 11:40:43;;;;;;;18.10;9.25;;;15.00;53.00;;;;;;5088936;28;20472;-70
2021/04/18 11:43:10;;;;;;;13.13;8.45;;;15.40;52.50;;;;;;5083945;28;20471;-71
2021/04/18 11:45:36;;;;;;;16.80;9.40;;;15.30;52.00;;;;;;5088910;28;20398;-71
2021/04/18 11:48:03;;;;;;;17.80;9.07;;;15.40;52.30;;;;;;5086321;28;20056;-71
2021/04/18 11:50:32;;;;;;;16.35;9.45;;;16.50;51.30;;;;;;5083127;28;20044;-70
2021/04/18 11:52:58;;;;;;;15.50;8.75;;;17.20;49.40;;;;;;5082487;28;20048;-70
2021/04/18 11:55:26;;;;;;;17.65;9.48;;;16.70;49.80;;;;;;5101121;28;20048;-70
2021/04/18 11:57:53;;;;;;;16.73;9.15;;;17.00;49.50;;;;;;5085422;28;20040;-70
2021/04/18 12:00:20;;;;;;;16.90;8.90;;;16.70;49.90;;;;;;5082019;28;20529;-71
2021/04/18 12:02:48;;;;;;;18.38;8.63;;;16.60;49.70;;;;;;5076875;28;20044;-70
2021/04/18 12:05:15;;;;;;;17.27;9.73;;;16.40;49.70;;;;;;5079265;28;20052;-71
2021/04/18 12:07:42;;;;;;;16.75;9.43;;;15.90;50.20;;;;;;5079647;28;20457;-73
2021/04/18 12:10:10;;;;;;;15.52;9.02;;;15.30;51.50;;;;;;5072855;28;21320;-73
2021/04/18 12:12:41;;;;;;;16.70;8.57;;;14.90;52.60;;;;;;5076789;28;20969;-75
2021/04/18 12:15:10;;;;;;;15.38;9.25;;;15.20;52.50;;;;;;5066530;28;20837;-73
2021/04/18 12:17:37;;;;;;;12.60;9.15;;;14.60;53.10;;;;;;5075296;28;20519;-73
2021/04/18 12:20:07;;;;;;;14.82;9.27;;;14.60;53.20;;;;;;5071785;28;20700;-72
2021/04/18 12:22:34;;;;;;;16.33;9.30;;;14.50;53.40;;;;;;5072749;28;20044;-73
2021/04/18 12:25:00;;;;;;;16.92;9.52;;;14.40;54.40;;;;;;5070618;28;20083;-71
2021/04/18 12:27:27;;;;;;;18.42;9.82;;;14.40;54.70;;;;;;5102534;27;20048;-73
2021/04/18 12:29:54;;;;;;;18.95;9.25;;;14.20;55.80;;;;;;5072569;28;20051;-73
2021/04/18 12:32:22;;;;;;;20.33;9.43;;;13.90;56.40;;;;;;5071140;28;20048;-73
2021/04/18 12:34:49;;;;;;;12.35;9.02;;;13.90;56.90;;;;;;5071158;28;20477;-73
2021/04/18 12:37:16;;;;;;;14.73;9.07;;;13.80;57.20;;;;;;5070198;28;20825;-76
2021/04/18 12:39:49;;;;;;;17.98;9.68;;;13.70;57.60;;;;;;5070234;28;20947;-74
2021/04/18 12:42:15;;;;;;;16.05;9.48;;;13.80;57.60;;;;;;5075111;28;20051;-73
2021/04/18 12:44:52;;;;;;;17.75;9.48;;;13.70;58.20;;;;;;5071184;28;20483;-74
2021/04/18 12:47:19;;;;;;;18.48;10.15;;;13.80;58.10;;;;;;5072040;28;20052;-73
2021/04/18 12:49:46;;;;;;;15.93;9.32;;;13.80;57.80;;;;;;5072477;28;20690;-74
2021/04/18 12:52:14;;;;;;;18.23;10.23;;;13.70;58.10;;;;;;5072618;28;20064;-72
2021/04/18 12:54:41;;;;;;;16.75;9.70;;;13.80;58.20;;;;;;5071232;28;20129;-73
2021/04/18 12:57:07;;;;;;;18.17;9.20;;;13.90;58.10;;;;;;5075903;28;20081;-72